sensor_id;sensor_type;location;lat;lon;timestamp;pressure;altitude;pressure_sealevel;temperature;humidity
35878;BME280;21982;49.804;24.072;2022-11-15T00:01:28;97558.97;;;5.21;75.57
35878;BME280;21982;49.804;24.072;2022-11-15T00:03:53;97646.16;;;5.70;75.99
35878;BME280;21982;49.804;24.072;2022-11-15T00:06:20;97616.13;;;5.55;76.01
35878;BME280;21982;49.804;24.072;2022-11-15T00:08:45;97711.84;;;6.15;76.01
35878;BME280;21982;49.804;24.072;2022-11-15T00:11:12;97645.88;;;5.73;75.67
35878;BME280;21982;49.804;24.072;2022-11-15T00:13:38;97684.56;;;5.98;75.72
35878;BME280;21982;49.804;24.072;2022-11-15T00:16:03;97607.25;;;5.56;75.86
35878;BME280;21982;49.804;24.072;2022-11-15T00:18:30;97698.25;;;6.20;75.75
35878;BME280;21982;49.804;24.072;2022-11-15T00:20:56;97705.66;;;6.24;75.96
35878;BME280;21982;49.804;24.072;2022-11-15T00:23:27;97527.47;;;5.21;75.33
35878;BME280;21982;49.804;24.072;2022-11-15T00:25:57;97704.53;;;6.27;75.64
35878;BME280;21982;49.804;24.072;2022-11-15T00:28:23;97691.06;;;6.22;75.97
35878;BME280;21982;49.804;24.072;2022-11-15T00:30:49;97687.59;;;6.21;75.16
35878;BME280;21982;49.804;24.072;2022-11-15T00:33:14;97623.34;;;5.88;75.58
35878;BME280;21982;49.804;24.072;2022-11-15T00:35:40;97581.66;;;5.58;75.50
35878;BME280;21982;49.804;24.072;2022-11-15T00:38:05;97546.41;;;5.43;76.12
35878;BME280;21982;49.804;24.072;2022-11-15T00:40:30;97635.53;;;6.07;75.50
35878;BME280;21982;49.804;24.072;2022-11-15T00:42:57;97664.28;;;6.26;75.67
35878;BME280;21982;49.804;24.072;2022-11-15T00:45:23;97671.34;;;6.26;75.65
35878;BME280;21982;49.804;24.072;2022-11-15T00:47:48;97649.28;;;6.19;75.85
35878;BME280;21982;49.804;24.072;2022-11-15T00:50:14;97641.25;;;6.02;75.56
35878;BME280;21982;49.804;24.072;2022-11-15T00:52:39;97515.72;;;5.25;76.02
35878;BME280;21982;49.804;24.072;2022-11-15T00:55:05;97650.78;;;6.03;76.12
35878;BME280;21982;49.804;24.072;2022-11-15T00:57:30;97624.03;;;5.90;75.89
35878;BME280;21982;49.804;24.072;2022-11-15T00:59:56;97602.84;;;5.74;75.88
35878;BME280;21982;49.804;24.072;2022-11-15T01:02:21;97612.09;;;5.78;76.11
35878;BME280;21982;49.804;24.072;2022-11-15T01:04:47;97656.94;;;5.94;75.96
35878;BME280;21982;49.804;24.072;2022-11-15T01:07:12;97637.56;;;5.95;76.19
35878;BME280;21982;49.804;24.072;2022-11-15T01:09:38;97635.00;;;6.03;75.98
35878;BME280;21982;49.804;24.072;2022-11-15T01:12:03;97384.94;;;4.50;75.98
35878;BME280;21982;49.804;24.072;2022-11-15T01:14:29;97557.81;;;5.69;75.80
35878;BME280;21982;49.804;24.072;2022-11-15T01:16:54;97593.84;;;5.94;76.10
35878;BME280;21982;49.804;24.072;2022-11-15T01:19:20;97637.63;;;6.21;76.20
35878;BME280;21982;49.804;24.072;2022-11-15T01:21:48;97628.81;;;6.30;76.07
35878;BME280;21982;49.804;24.072;2022-11-15T01:24:14;97629.94;;;6.28;76.12
35878;BME280;21982;49.804;24.072;2022-11-15T01:26:39;97625.66;;;6.27;75.87
35878;BME280;21982;49.804;24.072;2022-11-15T01:29:05;97626.44;;;6.19;75.61
35878;BME280;21982;49.804;24.072;2022-11-15T01:31:30;97622.59;;;6.14;75.62
35878;BME280;21982;49.804;24.072;2022-11-15T01:33:56;97507.69;;;5.45;75.94
35878;BME280;21982;49.804;24.072;2022-11-15T01:36:22;97581.63;;;5.85;76.17
35878;BME280;21982;49.804;24.072;2022-11-15T01:38:55;97608.13;;;6.10;75.88
35878;BME280;21982;49.804;24.072;2022-11-15T01:41:29;97602.41;;;5.96;76.17
35878;BME280;21982;49.804;24.072;2022-11-15T01:46:56;97484.38;;;5.06;76.05
35878;BME280;21982;49.804;24.072;2022-11-15T01:49:23;97609.25;;;5.89;76.13
35878;BME280;21982;49.804;24.072;2022-11-15T01:51:49;97604.66;;;5.91;76.27
35878;BME280;21982;49.804;24.072;2022-11-15T01:54:17;97571.63;;;5.71;76.52
35878;BME280;21982;49.804;24.072;2022-11-15T01:57:00;97591.16;;;5.86;76.04
35878;BME280;21982;49.804;24.072;2022-11-15T01:59:27;97566.13;;;5.64;76.38
35878;BME280;21982;49.804;24.072;2022-11-15T02:01:53;97537.84;;;5.41;76.27
35878;BME280;21982;49.804;24.072;2022-11-15T02:04:24;97550.69;;;5.61;75.76
35878;BME280;21982;49.804;24.072;2022-11-15T02:06:50;97599.41;;;5.91;76.16
35878;BME280;21982;49.804;24.072;2022-11-15T02:09:17;97603.38;;;5.95;76.30
35878;BME280;21982;49.804;24.072;2022-11-15T02:11:43;97533.72;;;5.56;76.10
35878;BME280;21982;49.804;24.072;2022-11-15T02:14:11;97604.88;;;5.98;76.44
35878;BME280;21982;49.804;24.072;2022-11-15T02:16:54;97604.06;;;5.97;76.27
35878;BME280;21982;49.804;24.072;2022-11-15T02:24:48;97454.19;;;4.92;76.09
35878;BME280;21982;49.804;24.072;2022-11-15T02:30:24;97583.94;;;5.88;76.21
35878;BME280;21982;49.804;24.072;2022-11-15T02:35:58;97526.88;;;5.63;76.42
35878;BME280;21982;49.804;24.072;2022-11-15T02:46:41;97522.19;;;5.49;76.25
35878;BME280;21982;49.804;24.072;2022-11-15T02:49:30;97564.72;;;5.70;76.96
35878;BME280;21982;49.804;24.072;2022-11-15T02:51:57;97567.34;;;5.70;77.19
35878;BME280;21982;49.804;24.072;2022-11-15T02:54:24;97568.69;;;5.74;76.58
35878;BME280;21982;49.804;24.072;2022-11-15T02:56:53;97567.88;;;5.73;76.72
35878;BME280;21982;49.804;24.072;2022-11-15T03:04:53;97480.91;;;5.23;76.31
35878;BME280;21982;49.804;24.072;2022-11-15T03:10:14;97554.28;;;5.78;76.38
35878;BME280;21982;49.804;24.072;2022-11-15T03:12:49;97520.22;;;5.51;76.79
35878;BME280;21982;49.804;24.072;2022-11-15T03:15:37;97451.06;;;5.07;76.33
35878;BME280;21982;49.804;24.072;2022-11-15T03:20:44;97507.53;;;5.28;77.16
35878;BME280;21982;49.804;24.072;2022-11-15T03:23:11;97549.47;;;5.56;77.24
35878;BME280;21982;49.804;24.072;2022-11-15T03:25:41;97544.28;;;5.64;77.14
35878;BME280;21982;49.804;24.072;2022-11-15T03:28:12;97480.47;;;5.28;76.69
35878;BME280;21982;49.804;24.072;2022-11-15T03:30:39;97550.44;;;5.72;77.47
35878;BME280;21982;49.804;24.072;2022-11-15T03:33:07;97524.41;;;5.61;77.11
35878;BME280;21982;49.804;24.072;2022-11-15T03:35:38;97504.53;;;5.59;76.80
35878;BME280;21982;49.804;24.072;2022-11-15T03:40:47;97541.44;;;5.75;76.73
35878;BME280;21982;49.804;24.072;2022-11-15T03:46:12;97470.34;;;5.15;77.09
35878;BME280;21982;49.804;24.072;2022-11-15T03:49:06;97530.50;;;5.62;76.95
35878;BME280;21982;49.804;24.072;2022-11-15T03:51:35;97409.69;;;4.83;77.00
35878;BME280;21982;49.804;24.072;2022-11-15T03:54:03;97522.75;;;5.60;77.16
35878;BME280;21982;49.804;24.072;2022-11-15T03:56:29;97528.16;;;5.59;77.36
35878;BME280;21982;49.804;24.072;2022-11-15T03:58:54;97515.03;;;5.59;77.28
35878;BME280;21982;49.804;24.072;2022-11-15T04:01:19;97510.41;;;5.53;77.27
35878;BME280;21982;49.804;24.072;2022-11-15T04:03:45;97525.22;;;5.62;77.09
35878;BME280;21982;49.804;24.072;2022-11-15T04:06:10;97490.28;;;5.44;77.14
35878;BME280;21982;49.804;24.072;2022-11-15T04:08:36;97445.00;;;5.06;77.03
35878;BME280;21982;49.804;24.072;2022-11-15T04:11:01;97515.97;;;5.50;77.29
35878;BME280;21982;49.804;24.072;2022-11-15T04:13:28;97514.97;;;5.51;77.54
35878;BME280;21982;49.804;24.072;2022-11-15T04:15:54;97450.25;;;5.06;77.50
35878;BME280;21982;49.804;24.072;2022-11-15T04:18:20;97507.16;;;5.59;77.41
35878;BME280;21982;49.804;24.072;2022-11-15T04:20:46;97498.66;;;5.65;77.71
35878;BME280;21982;49.804;24.072;2022-11-15T04:23:29;97476.19;;;5.45;77.08
35878;BME280;21982;49.804;24.072;2022-11-15T04:26:19;97468.16;;;5.46;77.35
35878;BME280;21982;49.804;24.072;2022-11-15T04:28:45;97501.28;;;5.65;77.42
35878;BME280;21982;49.804;24.072;2022-11-15T04:31:30;97503.38;;;5.61;77.52
35878;BME280;21982;49.804;24.072;2022-11-15T04:33:55;97497.31;;;5.61;77.72
35878;BME280;21982;49.804;24.072;2022-11-15T04:36:21;97490.41;;;5.60;77.41
35878;BME280;21982;49.804;24.072;2022-11-15T04:39:05;97492.66;;;5.55;78.01
35878;BME280;21982;49.804;24.072;2022-11-15T04:41:31;97475.34;;;5.44;77.56
35878;BME280;21982;49.804;24.072;2022-11-15T04:43:56;97490.72;;;5.57;77.62
35878;BME280;21982;49.804;24.072;2022-11-15T04:46:22;97421.66;;;5.21;77.46
35878;BME280;21982;49.804;24.072;2022-11-15T04:48:49;97478.38;;;5.49;77.79
35878;BME280;21982;49.804;24.072;2022-11-15T04:51:14;97477.84;;;5.46;77.21
35878;BME280;21982;49.804;24.072;2022-11-15T04:53:39;97389.69;;;4.82;77.59
35878;BME280;21982;49.804;24.072;2022-11-15T04:56:05;97480.69;;;5.34;77.84
35878;BME280;21982;49.804;24.072;2022-11-15T04:58:30;97341.47;;;4.47;77.69
35878;BME280;21982;49.804;24.072;2022-11-15T05:00:56;97431.94;;;4.96;77.68
35878;BME280;21982;49.804;24.072;2022-11-15T05:03:21;97283.00;;;4.01;77.92
35878;BME280;21982;49.804;24.072;2022-11-15T05:06:05;97414.03;;;4.74;77.81
35878;BME280;21982;49.804;24.072;2022-11-15T05:08:32;97350.75;;;4.42;77.65
35878;BME280;21982;49.804;24.072;2022-11-15T05:10:59;97463.16;;;5.17;77.72
35878;BME280;21982;49.804;24.072;2022-11-15T05:13:24;97432.09;;;4.95;77.97
35878;BME280;21982;49.804;24.072;2022-11-15T05:15:50;97468.41;;;5.17;77.78
35878;BME280;21982;49.804;24.072;2022-11-15T05:18:15;97404.66;;;4.71;78.05
35878;BME280;21982;49.804;24.072;2022-11-15T05:20:40;97468.47;;;5.08;77.94
35878;BME280;21982;49.804;24.072;2022-11-15T05:23:06;97454.13;;;5.02;77.79
35878;BME280;21982;49.804;24.072;2022-11-15T05:25:31;97461.81;;;5.13;77.90
35878;BME280;21982;49.804;24.072;2022-11-15T05:27:57;97329.47;;;4.27;77.88
35878;BME280;21982;49.804;24.072;2022-11-15T05:30:22;97474.16;;;5.21;77.68
35878;BME280;21982;49.804;24.072;2022-11-15T05:32:47;97460.06;;;5.22;77.97
35878;BME280;21982;49.804;24.072;2022-11-15T05:35:35;97404.19;;;4.94;77.34
35878;BME280;21982;49.804;24.072;2022-11-15T05:38:03;97464.19;;;5.24;78.09
35878;BME280;21982;49.804;24.072;2022-11-15T05:40:29;97454.34;;;5.26;77.67
35878;BME280;21982;49.804;24.072;2022-11-15T05:42:56;97352.63;;;4.67;78.02
35878;BME280;21982;49.804;24.072;2022-11-15T05:45:21;97379.19;;;4.82;77.97
35878;BME280;21982;49.804;24.072;2022-11-15T05:47:48;97468.53;;;5.33;78.05
35878;BME280;21982;49.804;24.072;2022-11-15T05:50:16;97373.63;;;4.85;77.93
35878;BME280;21982;49.804;24.072;2022-11-15T05:52:43;97454.44;;;5.34;78.13
35878;BME280;21982;49.804;24.072;2022-11-15T05:55:09;97383.22;;;4.94;77.90
35878;BME280;21982;49.804;24.072;2022-11-15T05:57:36;97432.53;;;5.26;77.83
35878;BME280;21982;49.804;24.072;2022-11-15T06:00:04;97462.38;;;5.43;77.83
35878;BME280;21982;49.804;24.072;2022-11-15T06:02:29;97383.13;;;4.86;77.96
35878;BME280;21982;49.804;24.072;2022-11-15T06:04:55;97459.97;;;5.31;78.21
35878;BME280;21982;49.804;24.072;2022-11-15T06:07:20;97463.28;;;5.33;78.21
35878;BME280;21982;49.804;24.072;2022-11-15T06:09:47;97468.91;;;5.38;78.20
35878;BME280;21982;49.804;24.072;2022-11-15T06:12:13;97413.13;;;5.19;78.16
35878;BME280;21982;49.804;24.072;2022-11-15T06:14:38;97400.75;;;5.11;78.22
35878;BME280;21982;49.804;24.072;2022-11-15T06:17:04;97377.88;;;5.03;78.07
35878;BME280;21982;49.804;24.072;2022-11-15T06:19:29;97430.50;;;5.37;78.12
35878;BME280;21982;49.804;24.072;2022-11-15T06:21:58;97374.81;;;5.08;78.01
35878;BME280;21982;49.804;24.072;2022-11-15T06:24:24;97413.47;;;5.42;78.39
35878;BME280;21982;49.804;24.072;2022-11-15T06:26:49;97453.19;;;5.64;77.75
35878;BME280;21982;49.804;24.072;2022-11-15T06:29:16;97409.78;;;5.34;77.88
35878;BME280;21982;49.804;24.072;2022-11-15T06:31:43;97449.28;;;5.68;78.10
35878;BME280;21982;49.804;24.072;2022-11-15T06:34:08;97427.00;;;5.55;78.18
35878;BME280;21982;49.804;24.072;2022-11-15T06:36:35;97438.25;;;5.65;78.12
35878;BME280;21982;49.804;24.072;2022-11-15T06:39:04;97444.16;;;5.67;78.10
35878;BME280;21982;49.804;24.072;2022-11-15T06:41:30;97447.31;;;5.70;78.12
35878;BME280;21982;49.804;24.072;2022-11-15T06:43:56;97442.38;;;5.67;77.72
35878;BME280;21982;49.804;24.072;2022-11-15T06:46:22;97431.75;;;5.51;78.02
35878;BME280;21982;49.804;24.072;2022-11-15T06:48:50;97447.78;;;5.66;78.28
35878;BME280;21982;49.804;24.072;2022-11-15T06:51:16;97266.28;;;4.48;77.72
35878;BME280;21982;49.804;24.072;2022-11-15T06:53:41;97438.41;;;5.63;77.86
35878;BME280;21982;49.804;24.072;2022-11-15T06:56:07;97432.31;;;5.63;77.87
35878;BME280;21982;49.804;24.072;2022-11-15T06:58:34;97434.19;;;5.70;78.30
35878;BME280;21982;49.804;24.072;2022-11-15T07:01:01;97439.84;;;5.84;77.98
35878;BME280;21982;49.804;24.072;2022-11-15T07:03:27;97249.97;;;4.80;77.58
35878;BME280;21982;49.804;24.072;2022-11-15T07:05:55;97420.59;;;5.75;77.59
35878;BME280;21982;49.804;24.072;2022-11-15T07:08:21;97424.19;;;5.74;77.11
35878;BME280;21982;49.804;24.072;2022-11-15T07:10:49;97429.13;;;5.77;77.73
35878;BME280;21982;49.804;24.072;2022-11-15T07:13:14;97424.50;;;5.71;77.82
35878;BME280;21982;49.804;24.072;2022-11-15T07:15:40;97425.84;;;5.75;77.94
35878;BME280;21982;49.804;24.072;2022-11-15T07:18:05;97420.94;;;5.80;77.89
35878;BME280;21982;49.804;24.072;2022-11-15T07:20:30;97421.97;;;5.87;77.53
35878;BME280;21982;49.804;24.072;2022-11-15T07:23:05;97387.41;;;5.74;77.67
35878;BME280;21982;49.804;24.072;2022-11-15T07:25:30;97426.34;;;6.04;77.76
35878;BME280;21982;49.804;24.072;2022-11-15T07:27:57;97357.16;;;5.70;77.66
35878;BME280;21982;49.804;24.072;2022-11-15T07:30:24;97432.84;;;6.18;77.43
35878;BME280;21982;49.804;24.072;2022-11-15T07:32:58;97417.75;;;6.28;77.07
35878;BME280;21982;49.804;24.072;2022-11-15T07:35:26;97413.97;;;6.23;77.00
35878;BME280;21982;49.804;24.072;2022-11-15T07:37:59;97416.59;;;6.23;76.83
35878;BME280;21982;49.804;24.072;2022-11-15T07:40:58;97370.91;;;5.90;77.19
35878;BME280;21982;49.804;24.072;2022-11-15T07:43:24;97391.63;;;5.93;77.32
35878;BME280;21982;49.804;24.072;2022-11-15T07:45:50;97406.34;;;6.12;77.66
35878;BME280;21982;49.804;24.072;2022-11-15T07:48:16;97402.44;;;6.16;77.67
35878;BME280;21982;49.804;24.072;2022-11-15T07:50:41;97369.50;;;6.03;77.49
35878;BME280;21982;49.804;24.072;2022-11-15T07:53:08;97404.94;;;6.33;77.14
35878;BME280;21982;49.804;24.072;2022-11-15T07:55:33;97409.06;;;6.36;76.77
35878;BME280;21982;49.804;24.072;2022-11-15T07:58:02;97401.22;;;6.44;76.88
35878;BME280;21982;49.804;24.072;2022-11-15T08:00:28;97376.84;;;6.34;77.11
35878;BME280;21982;49.804;24.072;2022-11-15T08:03:02;97356.66;;;6.43;76.25
35878;BME280;21982;49.804;24.072;2022-11-15T08:05:28;97331.78;;;6.29;76.60
35878;BME280;21982;49.804;24.072;2022-11-15T08:07:55;97388.94;;;6.69;76.39
35878;BME280;21982;49.804;24.072;2022-11-15T08:10:23;97147.06;;;4.94;76.40
35878;BME280;21982;49.804;24.072;2022-11-15T08:13:06;97295.63;;;6.15;75.93
35878;BME280;21982;49.804;24.072;2022-11-15T08:15:32;97317.63;;;6.14;75.82
35878;BME280;21982;49.804;24.072;2022-11-15T08:18:01;97315.19;;;6.20;76.08
35878;BME280;21982;49.804;24.072;2022-11-15T08:20:28;97381.06;;;6.77;75.97
35878;BME280;21982;49.804;24.072;2022-11-15T08:22:57;97383.91;;;6.92;76.21
35878;BME280;21982;49.804;24.072;2022-11-15T08:25:24;97362.50;;;6.87;75.50
35878;BME280;21982;49.804;24.072;2022-11-15T08:27:56;97355.25;;;6.89;75.76
35878;BME280;21982;49.804;24.072;2022-11-15T08:30:21;97370.56;;;7.10;75.63
35878;BME280;21982;49.804;24.072;2022-11-15T08:32:48;97372.38;;;7.25;76.00
35878;BME280;21982;49.804;24.072;2022-11-15T08:35:13;97358.56;;;7.15;74.71
35878;BME280;21982;49.804;24.072;2022-11-15T08:37:39;97172.69;;;6.00;75.06
35878;BME280;21982;49.804;24.072;2022-11-15T08:40:05;97017.00;;;4.91;75.07
35878;BME280;21982;49.804;24.072;2022-11-15T08:42:30;97380.25;;;7.42;74.45
35878;BME280;21982;49.804;24.072;2022-11-15T08:44:56;97337.47;;;7.15;74.75
35878;BME280;21982;49.804;24.072;2022-11-15T08:47:23;97339.13;;;7.16;74.42
35878;BME280;21982;49.804;24.072;2022-11-15T08:49:49;97366.09;;;7.34;74.28
35878;BME280;21982;49.804;24.072;2022-11-15T08:52:14;97288.94;;;6.93;74.44
35878;BME280;21982;49.804;24.072;2022-11-15T08:54:40;97268.06;;;6.76;74.28
35878;BME280;21982;49.804;24.072;2022-11-15T08:57:10;97365.75;;;7.62;73.75
35878;BME280;21982;49.804;24.072;2022-11-15T08:59:36;97362.25;;;7.69;74.13
35878;BME280;21982;49.804;24.072;2022-11-15T09:02:02;97335.13;;;7.53;74.09
35878;BME280;21982;49.804;24.072;2022-11-15T09:04:28;97368.66;;;7.75;73.57
35878;BME280;21982;49.804;24.072;2022-11-15T09:06:53;97290.41;;;7.20;73.93
35878;BME280;21982;49.804;24.072;2022-11-15T09:09:19;97320.66;;;7.49;73.33
35878;BME280;21982;49.804;24.072;2022-11-15T09:11:44;97301.38;;;7.48;73.47
35878;BME280;21982;49.804;24.072;2022-11-15T09:14:13;97297.50;;;7.75;73.13
35878;BME280;21982;49.804;24.072;2022-11-15T09:16:39;97353.31;;;8.34;72.75
35878;BME280;21982;49.804;24.072;2022-11-15T09:19:04;97351.09;;;8.77;72.69
35878;BME280;21982;49.804;24.072;2022-11-15T09:21:30;97343.22;;;9.14;71.96
35878;BME280;21982;49.804;24.072;2022-11-15T09:23:56;97285.97;;;8.92;70.93
35878;BME280;21982;49.804;24.072;2022-11-15T09:26:21;97217.00;;;8.49;70.65
35878;BME280;21982;49.804;24.072;2022-11-15T09:28:47;97335.41;;;9.21;70.42
35878;BME280;21982;49.804;24.072;2022-11-15T09:31:12;97304.13;;;9.10;70.61
35878;BME280;21982;49.804;24.072;2022-11-15T09:33:38;97273.53;;;8.78;70.52
35878;BME280;21982;49.804;24.072;2022-11-15T09:36:05;97344.50;;;9.18;70.16
35878;BME280;21982;49.804;24.072;2022-11-15T09:38:32;97307.41;;;9.12;70.26
35878;BME280;21982;49.804;24.072;2022-11-15T09:41:29;97319.66;;;9.27;69.27
35878;BME280;21982;49.804;24.072;2022-11-15T09:44:24;97347.84;;;9.12;69.60
35878;BME280;21982;49.804;24.072;2022-11-15T09:49:21;97089.31;;;7.67;69.63
35878;BME280;21982;49.804;24.072;2022-11-15T09:51:51;97300.59;;;9.17;69.51
35878;BME280;21982;49.804;24.072;2022-11-15T09:54:34;97294.25;;;9.26;69.30
35878;BME280;21982;49.804;24.072;2022-11-15T09:57:11;97291.53;;;9.34;68.96
35878;BME280;21982;49.804;24.072;2022-11-15T10:02:30;97285.06;;;9.52;68.74
35878;BME280;21982;49.804;24.072;2022-11-15T10:05:00;97284.16;;;9.59;68.36
35878;BME280;21982;49.804;24.072;2022-11-15T10:12:25;97280.19;;;9.99;67.31
35878;BME280;21982;49.804;24.072;2022-11-15T10:14:58;97226.06;;;9.66;66.84
35878;BME280;21982;49.804;24.072;2022-11-15T10:20:24;97280.13;;;12.65;65.52
35878;BME280;21982;49.804;24.072;2022-11-15T10:22:55;97269.38;;;14.11;62.80
35878;BME280;21982;49.804;24.072;2022-11-15T10:30:41;97183.28;;;16.62;55.91
35878;BME280;21982;49.804;24.072;2022-11-15T10:33:34;97273.78;;;17.89;55.23
35878;BME280;21982;49.804;24.072;2022-11-15T10:41:32;97232.41;;;18.93;51.33
35878;BME280;21982;49.804;24.072;2022-11-15T10:44:08;97263.31;;;19.46;49.29
35878;BME280;21982;49.804;24.072;2022-11-15T10:46:36;97184.50;;;19.19;48.43
35878;BME280;21982;49.804;24.072;2022-11-15T10:49:19;97249.25;;;19.94;47.86
35878;BME280;21982;49.804;24.072;2022-11-15T10:51:52;97232.56;;;20.14;46.78
35878;BME280;21982;49.804;24.072;2022-11-15T10:54:25;97227.22;;;20.63;46.08
35878;BME280;21982;49.804;24.072;2022-11-15T10:56:55;97207.19;;;20.76;45.24
35878;BME280;21982;49.804;24.072;2022-11-15T10:59:30;97224.59;;;21.27;44.06
35878;BME280;21982;49.804;24.072;2022-11-15T11:01:57;97143.34;;;21.03;43.49
35878;BME280;21982;49.804;24.072;2022-11-15T11:04:22;97215.81;;;21.89;42.53
35878;BME280;21982;49.804;24.072;2022-11-15T11:06:57;97180.06;;;22.09;42.33
35878;BME280;21982;49.804;24.072;2022-11-15T11:09:35;97202.88;;;22.68;41.47
35878;BME280;21982;49.804;24.072;2022-11-15T11:12:01;97200.22;;;22.99;40.61
35878;BME280;21982;49.804;24.072;2022-11-15T11:14:34;97190.50;;;23.38;39.63
35878;BME280;21982;49.804;24.072;2022-11-15T11:17:16;97192.09;;;23.65;39.19
35878;BME280;21982;49.804;24.072;2022-11-15T11:19:56;97199.81;;;24.02;38.62
35878;BME280;21982;49.804;24.072;2022-11-15T11:33:22;97167.53;;;24.21;36.62
35878;BME280;21982;49.804;24.072;2022-11-15T11:42:10;97152.78;;;24.52;36.18
35878;BME280;21982;49.804;24.072;2022-11-15T11:47:32;97050.06;;;23.18;35.93
35878;BME280;21982;49.804;24.072;2022-11-15T11:50:04;97133.91;;;23.83;36.05
35878;BME280;21982;49.804;24.072;2022-11-15T11:53:09;97135.47;;;23.94;35.70
35878;BME280;21982;49.804;24.072;2022-11-15T11:55:49;97136.22;;;24.10;36.61
35878;BME280;21982;49.804;24.072;2022-11-15T11:58:21;97111.72;;;23.91;35.39
35878;BME280;21982;49.804;24.072;2022-11-15T12:00:55;97116.00;;;22.82;35.84
35878;BME280;21982;49.804;24.072;2022-11-15T12:03:30;97104.09;;;22.78;36.23
35878;BME280;21982;49.804;24.072;2022-11-15T12:06:01;97116.47;;;22.33;36.76
35878;BME280;21982;49.804;24.072;2022-11-15T12:08:43;97072.53;;;21.55;37.19
35878;BME280;21982;49.804;24.072;2022-11-15T12:11:29;97010.56;;;21.45;37.47
35878;BME280;21982;49.804;24.072;2022-11-15T12:14:00;97103.81;;;22.64;36.56
35878;BME280;21982;49.804;24.072;2022-11-15T12:16:28;97107.38;;;22.80;36.09
35878;BME280;21982;49.804;24.072;2022-11-15T12:18:58;97045.66;;;21.70;36.46
35878;BME280;21982;49.804;24.072;2022-11-15T12:24:02;97094.59;;;19.60;38.56
35878;BME280;21982;49.804;24.072;2022-11-15T12:26:37;97084.28;;;18.13;41.13
35878;BME280;21982;49.804;24.072;2022-11-15T12:29:41;97028.75;;;17.11;41.96
35878;BME280;21982;49.804;24.072;2022-11-15T12:32:38;97084.97;;;17.63;42.12
35878;BME280;21982;49.804;24.072;2022-11-15T12:35:05;97080.19;;;18.72;41.99
35878;BME280;21982;49.804;24.072;2022-11-15T12:42:40;97077.59;;;20.94;38.50
35878;BME280;21982;49.804;24.072;2022-11-15T12:58:48;97056.56;;;22.05;37.22
35878;BME280;21982;49.804;24.072;2022-11-15T13:12:09;97052.66;;;21.66;36.94
35878;BME280;21982;49.804;24.072;2022-11-15T13:14:44;97040.19;;;21.50;37.12
35878;BME280;21982;49.804;24.072;2022-11-15T13:19:47;96913.84;;;20.28;37.31
35878;BME280;21982;49.804;24.072;2022-11-15T13:22:13;97033.03;;;20.71;37.53
35878;BME280;21982;49.804;24.072;2022-11-15T13:24:59;97025.00;;;20.39;37.98
35878;BME280;21982;49.804;24.072;2022-11-15T13:27:26;97020.28;;;20.24;37.99
35878;BME280;21982;49.804;24.072;2022-11-15T13:29:52;97019.44;;;19.92;38.25
35878;BME280;21982;49.804;24.072;2022-11-15T13:32:18;97011.38;;;19.43;38.72
35878;BME280;21982;49.804;24.072;2022-11-15T13:34:49;97015.28;;;19.30;39.13
35878;BME280;21982;49.804;24.072;2022-11-15T13:39:46;97017.38;;;19.06;39.67
35878;BME280;21982;49.804;24.072;2022-11-15T13:42:16;96976.13;;;18.69;39.65
35878;BME280;21982;49.804;24.072;2022-11-15T13:44:58;97007.94;;;18.82;39.90
35878;BME280;21982;49.804;24.072;2022-11-15T13:47:28;97008.34;;;18.74;39.89
35878;BME280;21982;49.804;24.072;2022-11-15T13:49:56;97005.59;;;18.52;39.86
35878;BME280;21982;49.804;24.072;2022-11-15T13:52:28;96994.16;;;18.06;40.39
35878;BME280;21982;49.804;24.072;2022-11-15T13:55:25;96997.78;;;17.67;41.14
35878;BME280;21982;49.804;24.072;2022-11-15T14:00:37;96979.56;;;17.12;41.69
35878;BME280;21982;49.804;24.072;2022-11-15T14:05:33;96888.13;;;15.88;42.68
35878;BME280;21982;49.804;24.072;2022-11-15T14:08:03;96997.19;;;16.26;42.98
35878;BME280;21982;49.804;24.072;2022-11-15T14:10:34;96921.78;;;15.48;43.40
35878;BME280;21982;49.804;24.072;2022-11-15T14:13:00;96853.69;;;14.73;43.96
35878;BME280;21982;49.804;24.072;2022-11-15T14:15:32;96885.75;;;14.67;44.38
35878;BME280;21982;49.804;24.072;2022-11-15T14:17:58;96987.91;;;14.97;44.91
35878;BME280;21982;49.804;24.072;2022-11-15T14:20:27;96983.25;;;14.74;45.56
35878;BME280;21982;49.804;24.072;2022-11-15T14:22:58;96984.34;;;14.49;45.72
35878;BME280;21982;49.804;24.072;2022-11-15T14:25:34;96962.72;;;13.89;46.75
35878;BME280;21982;49.804;24.072;2022-11-15T14:28:16;96966.53;;;13.74;47.40
35878;BME280;21982;49.804;24.072;2022-11-15T14:30:44;96932.50;;;13.20;47.83
35878;BME280;21982;49.804;24.072;2022-11-15T14:35:40;96953.69;;;12.89;49.10
35878;BME280;21982;49.804;24.072;2022-11-15T14:38:05;96976.84;;;12.82;49.52
35878;BME280;21982;49.804;24.072;2022-11-15T23:01:19;96500.28;;;8.48;67.65
35878;BME280;21982;49.804;24.072;2022-11-15T23:03:45;96588.47;;;9.01;67.99
35878;BME280;21982;49.804;24.072;2022-11-15T23:06:11;96567.34;;;8.95;68.21
35878;BME280;21982;49.804;24.072;2022-11-15T23:08:36;96586.09;;;9.13;67.25
35878;BME280;21982;49.804;24.072;2022-11-15T23:11:03;96583.13;;;9.23;67.21
35878;BME280;21982;49.804;24.072;2022-11-15T23:13:49;96573.41;;;9.30;66.91
35878;BME280;21982;49.804;24.072;2022-11-15T23:16:16;96522.31;;;9.10;67.08
35878;BME280;21982;49.804;24.072;2022-11-15T23:18:51;96560.91;;;9.65;66.12
35878;BME280;21982;49.804;24.072;2022-11-15T23:21:23;96414.41;;;8.93;65.57
35878;BME280;21982;49.804;24.072;2022-11-15T23:24:12;96495.59;;;9.52;65.12
35878;BME280;21982;49.804;24.072;2022-11-15T23:26:38;96545.25;;;9.90;65.25
35878;BME280;21982;49.804;24.072;2022-11-15T23:29:06;96414.84;;;9.10;64.61
35878;BME280;21982;49.804;24.072;2022-11-15T23:31:32;96554.84;;;9.97;64.92
35878;BME280;21982;49.804;24.072;2022-11-15T23:34:16;96535.72;;;9.95;65.30
35878;BME280;21982;49.804;24.072;2022-11-15T23:36:41;96553.81;;;10.12;64.42
35878;BME280;21982;49.804;24.072;2022-11-15T23:39:07;96557.47;;;10.11;64.24